Time;durP1;ratioP1;P1;durP2;ratioP2;P2;SDS_P1;SDS_P2;PMS_P1;PMS_P2;Temp;Humidity;BMP_temperature;BMP_pressure;BME280_temperature;BME280_humidity;BME280_pressure;Samples;Min_cycle;Max_cycle;Signal;HPM_P1;HPM_P2
2022/03/21 00:01:51;;;;;;;15.60;9.30;;;6.40;44.60;;;;;;5043333;28;20044;-64
2022/03/21 00:04:17;;;;;;;18.65;9.88;;;6.40;44.80;;;;;;5043114;28;20052;-63
2022/03/21 00:06:43;;;;;;;15.50;8.98;;;6.30;44.80;;;;;;5041457;28;20025;-65
2022/03/21 00:09:09;;;;;;;16.63;9.23;;;6.30;45.00;;;;;;5057976;28;20025;-65
2022/03/21 00:11:35;;;;;;;17.45;10.23;;;6.20;45.10;;;;;;5041635;28;20029;-63
2022/03/21 00:14:00;;;;;;;13.85;8.75;;;6.20;45.30;;;;;;5043215;28;20215;-63
2022/03/21 00:16:27;;;;;;;14.60;8.75;;;6.20;45.50;;;;;;5047421;28;20065;-64
2022/03/21 00:18:53;;;;;;;15.63;8.57;;;6.10;45.40;;;;;;5047372;28;20025;-64
2022/03/21 00:21:19;;;;;;;18.85;9.48;;;6.00;45.40;;;;;;5062895;28;20038;-63
2022/03/21 00:23:46;;;;;;;16.10;9.63;;;6.00;45.80;;;;;;5050330;28;20473;-64
2022/03/21 00:26:13;;;;;;;15.68;9.18;;;5.90;45.90;;;;;;5048079;28;20025;-64
2022/03/21 00:28:38;;;;;;;13.90;8.30;;;5.90;46.00;;;;;;5046874;28;20045;-65
2022/03/21 00:31:04;;;;;;;14.10;9.13;;;5.80;46.10;;;;;;5047555;28;20104;-64
2022/03/21 00:33:31;;;;;;;16.30;9.45;;;5.80;46.30;;;;;;5049187;28;20029;-65
2022/03/21 00:35:58;;;;;;;14.50;8.70;;;5.70;46.30;;;;;;5044916;28;20033;-65
2022/03/21 00:38:24;;;;;;;18.08;9.93;;;5.70;46.40;;;;;;5030566;28;20025;-65
2022/03/21 00:40:50;;;;;;;19.38;10.98;;;5.70;46.60;;;;;;5047612;28;20076;-64
2022/03/21 00:43:23;;;;;;;17.90;10.05;;;5.60;46.70;;;;;;5046580;28;20076;-65
2022/03/21 00:45:57;;;;;;;16.65;10.10;;;5.60;46.80;;;;;;5047474;28;20441;-65
2022/03/21 00:48:23;;;;;;;14.07;8.23;;;5.50;46.60;;;;;;5050010;28;20108;-65
2022/03/21 00:50:50;;;;;;;18.23;9.70;;;5.50;46.50;;;;;;5047021;28;20025;-65
2022/03/21 00:53:16;;;;;;;18.73;10.23;;;5.40;46.70;;;;;;5049403;28;20025;-65
2022/03/21 00:55:42;;;;;;;16.67;10.27;;;5.40;46.90;;;;;;5046219;28;20041;-65
2022/03/21 00:58:08;;;;;;;16.67;10.02;;;5.30;47.00;;;;;;5045606;28;20089;-65
2022/03/21 01:00:34;;;;;;;18.27;9.73;;;5.30;47.20;;;;;;5058033;28;20040;-64
2022/03/21 01:03:01;;;;;;;17.85;10.25;;;5.30;47.40;;;;;;5046985;28;20056;-65
2022/03/21 01:05:28;;;;;;;17.38;10.18;;;5.20;47.60;;;;;;5047408;28;20470;-64
2022/03/21 01:07:55;;;;;;;17.98;9.77;;;5.20;47.50;;;;;;5045892;28;20033;-65
2022/03/21 01:10:22;;;;;;;16.48;9.82;;;5.20;47.80;;;;;;5049270;28;20038;-65
2022/03/21 01:12:49;;;;;;;17.52;9.98;;;5.10;47.80;;;;;;5050654;28;20512;-65
2022/03/21 01:15:17;;;;;;;17.83;10.23;;;5.10;47.90;;;;;;5046536;28;20033;-65
2022/03/21 01:17:44;;;;;;;17.45;9.52;;;5.10;47.90;;;;;;5049954;28;20026;-65
2022/03/21 01:20:11;;;;;;;18.98;10.43;;;5.10;47.80;;;;;;5053433;28;20029;-65
2022/03/21 01:22:37;;;;;;;16.73;9.68;;;5.00;47.80;;;;;;5048353;28;20021;-64
2022/03/21 01:25:03;;;;;;;17.08;9.73;;;5.00;47.80;;;;;;5045445;28;20028;-65
2022/03/21 01:27:29;;;;;;;15.18;9.27;;;5.00;47.90;;;;;;5046526;28;20029;-65
2022/03/21 01:29:56;;;;;;;18.70;9.90;;;4.90;47.90;;;;;;5045945;28;20030;-65
2022/03/21 01:32:21;;;;;;;18.02;9.38;;;4.90;48.00;;;;;;5028791;28;20029;-64
2022/03/21 01:34:47;;;;;;;16.88;9.77;;;4.90;48.20;;;;;;5047743;28;20029;-65
2022/03/21 01:37:13;;;;;;;16.88;9.82;;;4.90;48.20;;;;;;5047608;28;20041;-65
2022/03/21 01:39:39;;;;;;;16.25;10.00;;;4.90;48.30;;;;;;5044668;28;20038;-64
2022/03/21 01:42:05;;;;;;;14.70;8.85;;;4.80;48.30;;;;;;5028327;28;20079;-65
2022/03/21 01:44:31;;;;;;;15.48;9.40;;;4.80;48.40;;;;;;5028002;28;20160;-65
2022/03/21 01:46:56;;;;;;;16.05;9.35;;;4.80;48.40;;;;;;5045867;28;20029;-65
2022/03/21 01:49:24;;;;;;;17.63;9.68;;;4.80;48.60;;;;;;5046036;28;20021;-65
2022/03/21 01:51:49;;;;;;;21.23;9.80;;;4.80;48.60;;;;;;5046390;28;20064;-64
2022/03/21 01:57:01;;;;;;;15.25;9.25;;;4.70;48.80;;;;;;5053400;28;20059;-64
2022/03/21 01:59:27;;;;;;;17.58;9.25;;;4.70;48.70;;;;;;5049574;28;20097;-65
2022/03/21 02:01:53;;;;;;;16.83;8.95;;;4.80;48.90;;;;;;5047607;28;20029;-65
2022/03/21 02:04:18;;;;;;;17.30;9.75;;;4.60;48.80;;;;;;5046389;28;20029;-65
2022/03/21 02:06:45;;;;;;;15.13;9.38;;;4.60;49.10;;;;;;5046283;28;20033;-65
2022/03/21 02:09:11;;;;;;;16.85;10.02;;;4.50;49.10;;;;;;5044943;28;20053;-64
2022/03/21 02:11:38;;;;;;;19.20;9.70;;;4.50;49.70;;;;;;5045995;28;20024;-64
2022/03/21 02:14:05;;;;;;;17.23;8.90;;;4.50;49.20;;;;;;5044929;28;20025;-64
2022/03/21 02:16:33;;;;;;;16.88;9.52;;;4.50;49.30;;;;;;5055362;28;20438;-64
2022/03/21 02:19:08;;;;;;;14.18;9.30;;;4.50;49.30;;;;;;5025555;28;20080;-64
2022/03/21 02:21:44;;;;;;;15.18;9.30;;;4.40;49.40;;;;;;5047443;28;20047;-64
2022/03/21 02:24:33;;;;;;;17.25;9.52;;;4.40;50.20;;;;;;5051767;28;20032;-64
2022/03/21 02:27:01;;;;;;;16.02;8.38;;;4.40;49.90;;;;;;5045743;28;20061;-65
2022/03/21 02:29:29;;;;;;;14.93;9.45;;;4.30;49.70;;;;;;5058225;28;20129;-64
2022/03/21 02:31:55;;;;;;;17.85;9.77;;;4.30;49.90;;;;;;5046025;28;20030;-64
2022/03/21 02:34:26;;;;;;;16.42;10.25;;;4.30;50.10;;;;;;5048580;28;20400;-64
2022/03/21 02:36:59;;;;;;;16.48;9.43;;;4.20;50.20;;;;;;5044993;28;20072;-64
2022/03/21 02:39:27;;;;;;;11.05;7.00;;;4.20;50.20;;;;;;5057599;28;20033;-65
2022/03/21 02:41:53;;;;;;;14.32;9.25;;;4.20;50.00;;;;;;5045253;28;20029;-64
2022/03/21 02:44:18;;;;;;;16.60;8.68;;;4.20;49.90;;;;;;5045116;28;20045;-64
2022/03/21 02:46:45;;;;;;;13.88;8.68;;;4.10;49.90;;;;;;5044796;28;20036;-65
2022/03/21 02:49:11;;;;;;;17.70;9.23;;;4.20;49.90;;;;;;5045520;28;20030;-64
2022/03/21 02:51:40;;;;;;;16.23;8.38;;;4.40;50.00;;;;;;5037294;28;20041;-64
2022/03/21 02:54:05;;;;;;;16.00;8.40;;;4.10;49.90;;;;;;5043442;28;20033;-65
2022/03/21 02:56:31;;;;;;;15.70;8.63;;;4.00;49.80;;;;;;5034406;28;20028;-65
2022/03/21 02:58:57;;;;;;;17.75;9.18;;;4.20;49.90;;;;;;5047081;28;20026;-65
2022/03/21 03:01:23;;;;;;;15.82;9.45;;;4.00;49.90;;;;;;5060812;28;20037;-64
2022/03/21 03:03:48;;;;;;;15.07;9.10;;;4.30;50.10;;;;;;5026053;28;20029;-64
2022/03/21 03:06:14;;;;;;;12.93;8.55;;;4.00;50.10;;;;;;5043912;28;20029;-64
2022/03/21 03:08:42;;;;;;;18.00;9.63;;;4.00;50.20;;;;;;5043623;28;20415;-65
2022/03/21 03:11:08;;;;;;;15.93;9.02;;;4.30;50.50;;;;;;5051455;28;20030;-64
2022/03/21 03:13:33;;;;;;;15.23;9.00;;;4.20;50.50;;;;;;5050758;28;20024;-64
2022/03/21 03:16:00;;;;;;;18.70;9.48;;;4.20;50.60;;;;;;5044712;28;20029;-64
2022/03/21 03:18:25;;;;;;;21.25;9.55;;;3.90;50.30;;;;;;5044495;28;20032;-65
2022/03/21 03:20:53;;;;;;;16.67;9.25;;;3.90;50.40;;;;;;5033139;28;20068;-65
2022/03/21 03:23:21;;;;;;;15.13;8.73;;;4.00;50.60;;;;;;5051582;28;20056;-64
2022/03/21 03:25:49;;;;;;;14.80;8.95;;;3.90;50.80;;;;;;5049040;28;20037;-64
2022/03/21 03:28:14;;;;;;;13.90;8.38;;;3.80;50.90;;;;;;5039679;28;20058;-64
2022/03/21 03:30:40;;;;;;;13.68;9.43;;;4.00;51.10;;;;;;5039068;28;20033;-65
2022/03/21 03:33:08;;;;;;;16.10;9.10;;;4.00;51.20;;;;;;5043980;28;20387;-63
2022/03/21 03:35:34;;;;;;;15.85;9.35;;;3.80;51.10;;;;;;5048441;28;20056;-64
2022/03/21 03:38:00;;;;;;;16.40;9.68;;;3.80;51.10;;;;;;5030251;28;20097;-64
2022/03/21 03:40:26;;;;;;;19.73;9.13;;;3.80;51.20;;;;;;5044407;28;20021;-64
2022/03/21 03:42:52;;;;;;;17.27;9.43;;;3.70;51.10;;;;;;5037675;28;20041;-64
2022/03/21 03:45:17;;;;;;;15.95;8.68;;;3.70;51.20;;;;;;5024897;28;20030;-64
2022/03/21 03:47:43;;;;;;;15.05;9.05;;;3.70;51.20;;;;;;5032899;28;20084;-63
2022/03/21 03:50:09;;;;;;;17.17;8.93;;;3.70;51.40;;;;;;5064955;28;20024;-63
2022/03/21 03:52:35;;;;;;;16.10;8.73;;;3.70;51.50;;;;;;5059314;28;20096;-64
2022/03/21 03:55:02;;;;;;;15.93;8.68;;;4.00;51.70;;;;;;5030800;28;20045;-64
2022/03/21 03:57:28;;;;;;;18.05;9.02;;;3.60;51.70;;;;;;5025860;28;20022;-63
2022/03/21 03:59:54;;;;;;;15.07;8.45;;;3.80;51.80;;;;;;5028780;28;20022;-64
2022/03/21 04:02:19;;;;;;;14.90;8.70;;;3.60;51.70;;;;;;5034083;28;20025;-64
2022/03/21 04:04:45;;;;;;;18.13;8.82;;;3.60;51.60;;;;;;5048261;28;20452;-64
2022/03/21 04:07:11;;;;;;;15.00;9.13;;;3.90;51.50;;;;;;5047304;28;20018;-64
2022/03/21 04:09:37;;;;;;;12.60;8.10;;;3.60;51.50;;;;;;5047617;28;20036;-64
2022/03/21 04:12:03;;;;;;;16.25;8.75;;;3.80;51.60;;;;;;5046458;28;20025;-64
2022/03/21 04:14:29;;;;;;;14.50;7.97;;;3.50;51.40;;;;;;5047492;28;20013;-65
2022/03/21 04:16:54;;;;;;;14.40;8.25;;;3.70;51.60;;;;;;5040901;28;20033;-64
2022/03/21 04:19:20;;;;;;;14.15;8.02;;;3.60;51.80;;;;;;5050454;28;20151;-64
2022/03/21 04:21:46;;;;;;;15.65;7.95;;;3.50;51.80;;;;;;5046663;28;20029;-64
2022/03/21 04:24:12;;;;;;;14.57;7.95;;;3.80;52.00;;;;;;5046936;28;20033;-64
2022/03/21 04:26:38;;;;;;;25.60;9.32;;;3.50;51.90;;;;;;5033770;28;20025;-64
2022/03/21 04:29:04;;;;;;;15.35;8.45;;;3.40;52.00;;;;;;5048021;28;20523;-64
2022/03/21 04:31:32;;;;;;;19.83;8.57;;;3.40;52.00;;;;;;5047256;28;20500;-64
2022/03/21 04:33:59;;;;;;;12.82;8.25;;;3.40;52.00;;;;;;5052572;28;20025;-64
2022/03/21 04:36:25;;;;;;;13.38;8.02;;;3.30;52.00;;;;;;5047125;28;20085;-64
2022/03/21 04:38:51;;;;;;;16.45;8.32;;;3.30;52.00;;;;;;5045592;28;20025;-64
2022/03/21 04:41:17;;;;;;;16.15;9.05;;;3.30;52.10;;;;;;5047456;28;20026;-64
2022/03/21 04:43:42;;;;;;;14.38;7.88;;;3.30;52.10;;;;;;5046253;28;20052;-64
2022/03/21 04:46:09;;;;;;;16.05;8.65;;;3.30;52.30;;;;;;5047178;28;20065;-64
2022/03/21 04:48:34;;;;;;;13.25;8.07;;;3.30;52.40;;;;;;5046235;28;20036;-65
2022/03/21 04:51:00;;;;;;;14.57;7.85;;;3.20;52.50;;;;;;5038458;28;20053;-62
2022/03/21 04:53:26;;;;;;;19.70;8.13;;;3.20;52.50;;;;;;5045968;28;20025;-64
2022/03/21 04:55:52;;;;;;;13.10;7.43;;;3.20;52.50;;;;;;5046686;28;20037;-64
2022/03/21 04:58:17;;;;;;;14.77;7.65;;;3.20;52.50;;;;;;5045401;28;20092;-63
2022/03/21 05:00:44;;;;;;;16.33;7.82;;;3.20;52.40;;;;;;5046407;28;20404;-62
2022/03/21 05:03:10;;;;;;;13.68;8.05;;;3.10;52.50;;;;;;5045849;28;20030;-62
2022/03/21 05:05:36;;;;;;;12.95;7.50;;;3.20;52.50;;;;;;5046834;28;20108;-64
2022/03/21 05:08:03;;;;;;;12.75;7.95;;;3.20;53.30;;;;;;5044460;28;20026;-64
2022/03/21 05:10:30;;;;;;;15.88;8.55;;;3.10;52.60;;;;;;5029041;28;20029;-64
2022/03/21 05:12:57;;;;;;;13.55;7.57;;;3.00;52.50;;;;;;5044772;28;20029;-64
2022/03/21 05:15:23;;;;;;;14.48;8.23;;;3.00;52.40;;;;;;5046558;28;20037;-64
2022/03/21 05:17:48;;;;;;;15.10;8.32;;;3.00;52.30;;;;;;5044893;28;20030;-64
2022/03/21 05:20:17;;;;;;;17.05;8.55;;;3.00;52.20;;;;;;5046556;28;20057;-64
2022/03/21 05:30:57;;;;;;;16.80;8.85;;;3.00;52.30;;;;;;5027228;28;20033;-64
2022/03/21 05:31:07;;;;;;;18.83;8.43;;;3.00;52.10;;;;;;5044325;28;20095;-65
2022/03/21 05:36:18;;;;;;;17.42;8.07;;;3.10;52.20;;;;;;5046703;28;20121;-64
2022/03/21 05:38:44;;;;;;;17.73;7.88;;;3.00;52.00;;;;;;5045139;28;20033;-64
2022/03/21 05:41:10;;;;;;;13.88;7.57;;;2.90;52.10;;;;;;5042864;28;20112;-64
2022/03/21 05:43:36;;;;;;;16.45;8.50;;;3.10;52.30;;;;;;5045200;28;20037;-63
2022/03/21 05:46:03;;;;;;;14.27;8.15;;;2.90;52.20;;;;;;5042054;28;20101;-63
2022/03/21 05:48:50;;;;;;;14.10;8.50;;;2.80;52.20;;;;;;5032691;28;20097;-64
2022/03/21 05:51:22;;;;;;;14.23;8.13;;;2.90;52.30;;;;;;5045535;28;20049;-64
2022/03/21 05:53:49;;;;;;;15.43;6.97;;;2.90;52.20;;;;;;5045053;28;20022;-64
2022/03/21 05:56:15;;;;;;;14.48;7.93;;;2.90;52.20;;;;;;5045742;28;20053;-64
2022/03/21 05:58:42;;;;;;;15.20;8.43;;;2.90;52.30;;;;;;5040381;28;20103;-64
2022/03/21 06:01:10;;;;;;;14.88;8.55;;;3.00;52.50;;;;;;5045738;28;20022;-63
2022/03/21 06:03:36;;;;;;;20.00;8.70;;;3.00;52.50;;;;;;5044191;28;20093;-64
2022/03/21 06:06:02;;;;;;;14.43;7.60;;;3.00;52.50;;;;;;5045604;28;20025;-63
2022/03/21 06:08:28;;;;;;;19.02;8.63;;;3.00;52.40;;;;;;5044271;28;20025;-64
2022/03/21 06:11:03;;;;;;;22.30;10.70;;;3.10;52.30;;;;;;5045633;28;20155;-64
2022/03/21 06:13:33;;;;;;;15.43;8.68;;;3.10;52.30;;;;;;5025380;28;20072;-64
2022/03/21 06:16:03;;;;;;;14.20;8.90;;;3.10;52.40;;;;;;5034584;28;20124;-65
2022/03/21 06:18:39;;;;;;;17.38;9.05;;;3.30;52.40;;;;;;5044096;28;20056;-64
2022/03/21 06:21:06;;;;;;;14.55;8.90;;;3.20;52.80;;;;;;5046618;28;20470;-64
2022/03/21 06:23:32;;;;;;;21.13;10.07;;;3.30;52.40;;;;;;5044366;28;20033;-64
2022/03/21 06:25:59;;;;;;;16.42;9.35;;;3.30;52.30;;;;;;5027216;28;20030;-63
2022/03/21 06:28:27;;;;;;;19.33;10.10;;;3.40;52.40;;;;;;5044369;28;20032;-64
2022/03/21 06:30:53;;;;;;;20.80;10.75;;;3.40;52.40;;;;;;5045198;28;20022;-63
2022/03/21 06:33:27;;;;;;;20.67;10.98;;;3.50;52.20;;;;;;5042356;28;20103;-64
2022/03/21 06:35:54;;;;;;;13.85;8.00;;;3.60;52.20;;;;;;5033401;28;20045;-64
2022/03/21 06:38:20;;;;;;;20.27;9.95;;;3.60;52.00;;;;;;5043571;28;20037;-63
2022/03/21 06:40:45;;;;;;;22.48;10.68;;;3.70;52.00;;;;;;5044922;28;20045;-62
2022/03/21 06:43:12;;;;;;;15.60;9.75;;;3.80;52.00;;;;;;5043723;28;20029;-65
2022/03/21 06:45:38;;;;;;;21.60;10.82;;;3.80;52.10;;;;;;5044727;28;20092;-62
2022/03/21 06:48:04;;;;;;;28.75;11.65;;;3.90;52.20;;;;;;5048927;28;20029;-63
2022/03/21 06:50:30;;;;;;;31.65;13.18;;;4.00;52.20;;;;;;5025816;28;20029;-63
2022/03/21 06:52:56;;;;;;;23.92;11.32;;;4.00;52.10;;;;;;5043328;28;20053;-63
2022/03/21 06:55:21;;;;;;;23.45;9.98;;;4.10;52.10;;;;;;5044884;28;20041;-63
2022/03/21 06:57:47;;;;;;;18.15;9.70;;;4.20;52.10;;;;;;5042992;28;20026;-63
2022/03/21 07:00:13;;;;;;;17.65;9.10;;;4.30;52.10;;;;;;5044732;28;20089;-64
2022/03/21 07:02:43;;;;;;;23.38;9.95;;;4.40;52.10;;;;;;5043423;28;20394;-63
2022/03/21 07:05:10;;;;;;;18.38;9.45;;;4.50;52.10;;;;;;5044413;28;20056;-63
2022/03/21 07:07:35;;;;;;;17.38;9.00;;;4.60;51.90;;;;;;5035713;28;20032;-64
2022/03/21 07:10:01;;;;;;;16.70;8.55;;;4.70;51.90;;;;;;5044343;28;20030;-63
2022/03/21 07:12:27;;;;;;;18.83;9.63;;;4.80;51.80;;;;;;5042550;28;20060;-63
2022/03/21 07:14:53;;;;;;;23.38;9.38;;;4.90;51.80;;;;;;5044684;28;20396;-63
2022/03/21 07:17:20;;;;;;;15.70;8.85;;;5.00;51.70;;;;;;5037893;28;20029;-62
2022/03/21 07:19:46;;;;;;;20.27;9.75;;;5.10;51.50;;;;;;5056480;28;20026;-64
2022/03/21 07:22:12;;;;;;;16.50;8.82;;;5.20;51.40;;;;;;5042028;28;20025;-62
2022/03/21 07:24:38;;;;;;;20.13;8.68;;;5.30;51.20;;;;;;5036885;28;20022;-62
2022/03/21 07:27:04;;;;;;;21.90;9.15;;;5.50;51.20;;;;;;5042565;28;20033;-62
2022/03/21 07:29:29;;;;;;;23.42;9.00;;;5.60;51.10;;;;;;5044376;28;20022;-62
2022/03/21 07:31:56;;;;;;;17.00;9.00;;;5.70;51.20;;;;;;5042866;28;20057;-63
2022/03/21 07:34:22;;;;;;;18.33;9.20;;;5.80;51.20;;;;;;5044504;28;20067;-62
2022/03/21 07:36:49;;;;;;;17.55;9.15;;;5.90;51.20;;;;;;5042704;28;20037;-62
2022/03/21 07:39:14;;;;;;;14.90;8.43;;;6.00;51.20;;;;;;5044002;28;20025;-62
2022/03/21 07:41:40;;;;;;;24.42;9.70;;;6.10;51.00;;;;;;5039615;28;20041;-63
2022/03/21 07:44:07;;;;;;;13.75;7.82;;;6.20;50.90;;;;;;5044387;28;20028;-63
2022/03/21 07:49:17;;;;;;;14.57;8.40;;;6.40;50.60;;;;;;5044307;28;20051;-64
2022/03/21 07:51:43;;;;;;;20.17;10.18;;;6.50;50.40;;;;;;5042527;28;20132;-62
2022/03/21 07:54:13;;;;;;;14.75;8.60;;;6.60;50.30;;;;;;5043962;28;20025;-65
2022/03/21 07:56:40;;;;;;;16.85;8.45;;;6.80;50.40;;;;;;5048287;28;20051;-64
2022/03/21 07:59:06;;;;;;;13.43;8.57;;;6.90;50.20;;;;;;5043886;28;20025;-64
2022/03/21 08:01:33;;;;;;;20.65;9.20;;;7.00;50.00;;;;;;5043827;28;20468;-64
2022/03/21 08:04:00;;;;;;;21.48;9.23;;;7.10;49.70;;;;;;5043129;28;20026;-64
2022/03/21 08:06:26;;;;;;;15.93;8.68;;;7.20;49.50;;;;;;5043861;28;20035;-64
2022/03/21 08:08:54;;;;;;;16.73;9.35;;;7.40;49.60;;;;;;5043103;28;20053;-64
2022/03/21 08:11:20;;;;;;;16.38;9.32;;;7.50;48.50;;;;;;5043615;28;20108;-63
2022/03/21 08:13:49;;;;;;;18.65;8.60;;;7.60;48.10;;;;;;5041382;28;20022;-64
2022/03/21 08:16:19;;;;;;;14.38;9.27;;;7.70;48.60;;;;;;5043712;28;20053;-64
2022/03/21 08:18:47;;;;;;;23.88;10.02;;;7.90;47.90;;;;;;5048717;28;20098;-64
2022/03/21 08:21:13;;;;;;;14.90;9.27;;;8.00;47.70;;;;;;5026325;28;20030;-62
2022/03/21 08:23:38;;;;;;;18.25;10.73;;;8.10;47.50;;;;;;5042936;28;20032;-63
2022/03/21 08:26:04;;;;;;;21.45;11.05;;;8.30;47.20;;;;;;5043660;28;20128;-64
2022/03/21 08:28:30;;;;;;;18.05;10.35;;;8.40;46.90;;;;;;5042390;28;20045;-65
2022/03/21 08:30:55;;;;;;;15.93;9.30;;;8.50;46.60;;;;;;5023878;28;20037;-62
2022/03/21 08:33:21;;;;;;;15.73;9.55;;;8.50;46.40;;;;;;5024650;28;20033;-64
2022/03/21 08:35:46;;;;;;;17.40;10.70;;;8.60;46.20;;;;;;5026591;28;20041;-63
2022/03/21 08:38:12;;;;;;;16.05;10.05;;;8.60;46.10;;;;;;5045790;28;20045;-63
2022/03/21 08:40:38;;;;;;;16.23;10.95;;;8.70;46.00;;;;;;5046857;28;20140;-63
2022/03/21 08:43:06;;;;;;;16.45;10.98;;;8.70;45.90;;;;;;5046399;28;20029;-63
2022/03/21 08:45:32;;;;;;;17.52;10.32;;;8.70;45.80;;;;;;5042262;28;20030;-63
2022/03/21 08:47:58;;;;;;;18.52;9.88;;;8.80;45.70;;;;;;5043421;28;20057;-63
2022/03/21 08:50:23;;;;;;;18.98;10.60;;;8.80;45.50;;;;;;5047009;28;20084;-63
2022/03/21 08:52:49;;;;;;;16.20;8.73;;;8.90;45.40;;;;;;5046079;28;20041;-63
2022/03/21 08:55:16;;;;;;;14.57;9.55;;;9.00;45.60;;;;;;5056916;28;20053;-62
2022/03/21 08:57:41;;;;;;;17.88;9.98;;;9.10;45.40;;;;;;5046205;28;20038;-63
2022/03/21 09:00:10;;;;;;;16.67;9.73;;;9.30;45.50;;;;;;5029271;28;20038;-63
2022/03/21 09:02:36;;;;;;;18.63;9.50;;;9.50;45.20;;;;;;5028621;28;20085;-63
2022/03/21 09:05:04;;;;;;;15.00;9.85;;;9.70;45.00;;;;;;5026061;28;20037;-64
2022/03/21 09:07:30;;;;;;;15.60;9.88;;;9.90;44.70;;;;;;5044967;28;20022;-64
2022/03/21 09:09:56;;;;;;;16.83;9.43;;;10.10;44.60;;;;;;5046704;28;20048;-64
2022/03/21 09:12:21;;;;;;;17.88;9.27;;;10.30;44.30;;;;;;5045264;28;20093;-64
2022/03/21 09:14:47;;;;;;;15.88;9.77;;;10.50;44.20;;;;;;5029101;28;20038;-64
2022/03/21 09:17:13;;;;;;;13.48;8.63;;;10.70;44.00;;;;;;5045181;28;20547;-64
2022/03/21 09:19:39;;;;;;;15.45;9.60;;;11.00;43.50;;;;;;5046281;28;20062;-64
2022/03/21 09:22:05;;;;;;;12.85;8.57;;;11.20;42.80;;;;;;5050127;28;20049;-64
2022/03/21 09:24:32;;;;;;;17.52;9.68;;;11.40;42.60;;;;;;5045334;28;20455;-63
2022/03/21 09:26:57;;;;;;;13.75;9.15;;;11.50;42.30;;;;;;5044989;28;20045;-64
2022/03/21 09:29:24;;;;;;;15.13;9.68;;;11.70;42.20;;;;;;5046340;28;20022;-63
2022/03/21 09:31:50;;;;;;;14.93;9.73;;;11.80;42.10;;;;;;5027081;28;20021;-64
2022/03/21 09:34:17;;;;;;;15.88;10.07;;;11.90;41.90;;;;;;5046147;28;20028;-64
2022/03/21 09:36:43;;;;;;;18.23;9.57;;;12.00;41.90;;;;;;5043927;28;20026;-64
2022/03/21 09:39:09;;;;;;;17.60;8.70;;;12.20;41.40;;;;;;5042452;28;20040;-64
2022/03/21 09:41:35;;;;;;;17.73;10.48;;;12.30;41.20;;;;;;5061105;28;20030;-64
2022/03/21 09:44:07;;;;;;;15.20;10.85;;;12.40;40.60;;;;;;5045077;28;20043;-64
2022/03/21 09:46:33;;;;;;;14.63;10.32;;;12.50;40.40;;;;;;5036835;28;20040;-64
2022/03/21 09:48:59;;;;;;;15.95;9.88;;;12.50;40.40;;;;;;5054305;28;20098;-64
2022/03/21 09:51:27;;;;;;;15.23;8.80;;;12.60;40.20;;;;;;5045214;28;20049;-64
2022/03/21 09:53:57;;;;;;;16.90;9.13;;;12.80;40.30;;;;;;5049859;28;20052;-64
2022/03/21 09:56:23;;;;;;;16.35;9.90;;;12.90;40.00;;;;;;5044944;28;20050;-63
2022/03/21 09:58:49;;;;;;;16.33;9.80;;;12.90;39.50;;;;;;5044642;28;20038;-64
2022/03/21 10:01:16;;;;;;;16.63;9.82;;;13.00;39.20;;;;;;5045896;28;20148;-64
2022/03/21 10:03:43;;;;;;;16.05;9.50;;;13.10;39.30;;;;;;5044506;28;20435;-65
2022/03/21 10:06:34;;;;;;;15.23;9.65;;;13.10;39.20;;;;;;5045604;28;20120;-64
2022/03/21 10:09:32;;;;;;;16.55;9.20;;;13.20;38.40;;;;;;5044646;28;20533;-65
2022/03/21 10:11:58;;;;;;;13.40;8.45;;;13.30;37.80;;;;;;4983203;28;20074;-64
2022/03/21 10:14:33;;;;;;;13.77;9.07;;;13.40;38.90;;;;;;4970596;28;20035;-65
2022/03/21 10:17:05;;;;;;;14.90;9.32;;;13.50;38.40;;;;;;4983329;28;20078;-64
2022/03/21 10:19:48;;;;;;;14.50;9.43;;;13.50;38.20;;;;;;4993289;28;20073;-65
2022/03/21 10:22:19;;;;;;;14.75;8.82;;;13.60;37.50;;;;;;4983261;28;20031;-65
2022/03/21 10:24:47;;;;;;;17.50;10.40;;;13.70;38.30;;;;;;4974480;28;20035;-64
2022/03/21 10:27:28;;;;;;;15.55;10.70;;;13.80;38.30;;;;;;4977572;28;20131;-64
2022/03/21 10:30:00;;;;;;;14.85;9.63;;;13.90;37.70;;;;;;4982153;28;20035;-64
2022/03/21 10:32:34;;;;;;;14.85;9.65;;;14.00;38.20;;;;;;4983254;28;20094;-64
2022/03/21 10:35:10;;;;;;;16.20;10.73;;;14.20;38.10;;;;;;4983744;28;20074;-63
2022/03/21 10:37:48;;;;;;;13.95;10.05;;;14.30;37.40;;;;;;4982865;28;20039;-64
2022/03/21 10:40:33;;;;;;;12.95;8.77;;;14.50;37.00;;;;;;4983768;28;20532;-64
2022/03/21 10:43:00;;;;;;;12.80;8.70;;;14.70;36.70;;;;;;4983120;28;20046;-64
2022/03/21 10:45:41;;;;;;;16.70;9.40;;;14.80;37.50;;;;;;4983054;28;20125;-64
2022/03/21 10:48:13;;;;;;;16.02;9.05;;;14.90;36.40;;;;;;5027182;28;20068;-64
2022/03/21 10:50:42;;;;;;;13.65;8.20;;;15.10;36.60;;;;;;5034230;28;20034;-64
2022/03/21 10:53:15;;;;;;;15.50;9.18;;;15.20;36.60;;;;;;5019162;28;20021;-64
2022/03/21 10:55:44;;;;;;;14.68;9.80;;;15.30;36.60;;;;;;5046759;28;20052;-63
2022/03/21 10:58:10;;;;;;;13.70;9.05;;;15.40;36.40;;;;;;5043339;28;20056;-64
2022/03/21 11:00:36;;;;;;;16.63;9.05;;;15.60;36.00;;;;;;5043813;28;20081;-65
2022/03/21 11:03:14;;;;;;;16.98;9.43;;;15.70;36.20;;;;;;5043742;28;20028;-64
2022/03/21 11:05:43;;;;;;;15.73;9.27;;;15.80;35.80;;;;;;5039824;28;20021;-65
2022/03/21 11:08:11;;;;;;;13.55;9.07;;;15.90;36.00;;;;;;5043567;28;20045;-65
2022/03/21 11:10:37;;;;;;;12.30;8.43;;;16.10;36.00;;;;;;5044521;28;20026;-64
2022/03/21 11:13:05;;;;;;;14.98;8.95;;;16.20;35.80;;;;;;5043531;28;20034;-66
2022/03/21 11:15:33;;;;;;;13.27;8.98;;;16.40;35.30;;;;;;5026562;28;20048;-64
2022/03/21 11:17:59;;;;;;;12.02;8.25;;;16.40;34.90;;;;;;5043293;28;20036;-65
2022/03/21 11:20:26;;;;;;;12.75;8.77;;;16.50;35.00;;;;;;5056322;28;20030;-66
2022/03/21 11:22:55;;;;;;;15.98;9.43;;;16.60;34.70;;;;;;5040316;28;20100;-66
2022/03/21 11:25:23;;;;;;;14.27;9.30;;;16.60;34.90;;;;;;5026175;28;20025;-66
2022/03/21 11:27:58;;;;;;;14.98;8.98;;;16.70;34.70;;;;;;5043649;28;20081;-64
2022/03/21 11:30:45;;;;;;;12.10;8.57;;;16.70;34.10;;;;;;5036850;28;20025;-65
2022/03/21 11:33:10;;;;;;;14.75;9.27;;;16.80;34.00;;;;;;5041843;28;20022;-63
2022/03/21 11:35:40;;;;;;;11.88;8.95;;;16.90;34.50;;;;;;5043794;28;20041;-65
2022/03/21 11:38:30;;;;;;;10.43;8.00;;;16.90;34.00;;;;;;5039861;28;20018;-65
2022/03/21 11:41:18;;;;;;;13.38;8.43;;;17.00;33.30;;;;;;5033083;28;20032;-64
2022/03/21 11:43:45;;;;;;;13.35;8.48;;;17.00;32.50;;;;;;5043033;28;20109;-66
2022/03/21 11:46:25;;;;;;;11.40;7.47;;;17.10;33.30;;;;;;5041597;28;20030;-65
2022/03/21 11:48:53;;;;;;;11.40;8.00;;;17.20;32.60;;;;;;5047919;28;20068;-64
2022/03/21 11:51:18;;;;;;;16.85;8.20;;;17.20;33.50;;;;;;5043728;28;20042;-65
2022/03/21 11:53:46;;;;;;;11.18;7.93;;;17.30;33.50;;;;;;5044234;28;20076;-65
2022/03/21 11:56:43;;;;;;;14.05;8.43;;;17.40;33.20;;;;;;5038289;28;20038;-65
2022/03/21 11:59:29;;;;;;;12.43;8.70;;;17.50;32.40;;;;;;5041040;28;20009;-65
2022/03/21 12:01:55;;;;;;;17.23;8.73;;;17.60;32.80;;;;;;5050395;28;20026;-65
2022/03/21 12:04:24;;;;;;;13.60;8.40;;;17.70;33.00;;;;;;5051307;28;20095;-64
2022/03/21 12:06:50;;;;;;;14.18;8.52;;;17.70;32.40;;;;;;5043928;28;20030;-65
2022/03/21 12:09:16;;;;;;;15.82;7.95;;;17.80;32.80;;;;;;5044679;28;20025;-65
2022/03/21 12:11:42;;;;;;;13.70;8.98;;;17.90;32.80;;;;;;5045199;28;20080;-65
2022/03/21 12:14:28;;;;;;;12.73;8.77;;;18.00;32.30;;;;;;5047289;28;20013;-65
2022/03/21 12:17:00;;;;;;;14.32;9.07;;;18.10;31.50;;;;;;5044086;28;20025;-65
2022/03/21 12:19:45;;;;;;;11.55;8.50;;;18.30;31.50;;;;;;5065724;28;20029;-66
2022/03/21 12:22:34;;;;;;;13.82;7.65;;;18.30;32.00;;;;;;5046895;28;20017;-65
2022/03/21 12:25:05;;;;;;;14.75;7.78;;;18.40;31.00;;;;;;5048162;28;20029;-65
2022/03/21 12:27:47;;;;;;;12.63;8.10;;;18.40;31.40;;;;;;5039729;28;20022;-65
2022/03/21 12:30:27;;;;;;;12.50;8.82;;;18.60;31.60;;;;;;5033753;28;20032;-64
2022/03/21 12:33:01;;;;;;;13.75;8.60;;;18.70;30.20;;;;;;5041886;28;20089;-65
2022/03/21 12:35:32;;;;;;;11.57;8.32;;;18.70;30.90;;;;;;5042192;28;20069;-65
2022/03/21 12:38:03;;;;;;;15.65;8.45;;;18.80;30.80;;;;;;5045341;28;20079;-67
2022/03/21 12:40:29;;;;;;;10.55;8.07;;;18.90;30.80;;;;;;5047413;28;20041;-65
2022/03/21 12:42:59;;;;;;;12.82;8.85;;;19.00;31.10;;;;;;5046314;28;20037;-65
2022/03/21 12:45:29;;;;;;;17.67;7.80;;;19.00;30.60;;;;;;5046439;28;20093;-65
2022/03/21 12:48:00;;;;;;;12.10;8.35;;;19.10;30.40;;;;;;5038452;28;20400;-65
2022/03/21 12:50:27;;;;;;;10.75;8.07;;;19.20;30.00;;;;;;5026466;28;20060;-64
2022/03/21 12:53:05;;;;;;;17.98;9.00;;;19.30;30.00;;;;;;5046342;28;20120;-64
2022/03/21 12:55:31;;;;;;;12.45;8.70;;;19.40;29.60;;;;;;5029579;28;20100;-65
2022/03/21 12:58:06;;;;;;;12.27;8.35;;;19.40;29.90;;;;;;5065545;28;20149;-64
2022/03/21 13:00:34;;;;;;;12.35;8.45;;;19.50;29.50;;;;;;5045304;28;20116;-65
2022/03/21 13:03:10;;;;;;;11.30;7.82;;;19.60;29.90;;;;;;5044893;28;20408;-63